createdAt,value
2023-02-02T00:01:47.637Z,100982.69
2023-02-02T00:04:18.608Z,100978.34
2023-02-02T00:06:46.134Z,100974.84
2023-02-02T00:09:15.405Z,100979.94
2023-02-02T00:11:44.591Z,100978.13
2023-02-02T00:14:11.627Z,100982.31
2023-02-02T00:16:41.360Z,100978.81
2023-02-02T00:19:11.472Z,100970.16
2023-02-02T00:21:38.413Z,100978.66
2023-02-02T00:24:08.235Z,100973.50
2023-02-02T00:26:36.073Z,100966.53
2023-02-02T00:29:03.695Z,100968.16
2023-02-02T00:31:30.358Z,100962.97
2023-02-02T00:33:56.974Z,100962.09
2023-02-02T00:36:23.715Z,100961.19
2023-02-02T00:38:51.320Z,100962.88
2023-02-02T00:41:17.873Z,100964.53
2023-02-02T00:43:44.776Z,100959.38
2023-02-02T00:46:17.023Z,100949.91
2023-02-02T00:48:43.601Z,100940.44
2023-02-02T00:51:10.578Z,100951.59
2023-02-02T00:53:37.173Z,100940.44
2023-02-02T00:56:04.009Z,100948.97
2023-02-02T00:58:30.586Z,100947.25
2023-02-02T01:00:57.229Z,100948.97
2023-02-02T01:03:23.780Z,100947.16
2023-02-02T01:05:52.052Z,100950.56
2023-02-02T01:08:18.800Z,100948.03
2023-02-02T01:10:45.401Z,100935.13
2023-02-02T01:13:11.951Z,100936.94
2023-02-02T01:15:38.481Z,100931.78
2023-02-02T01:18:05.106Z,100937.13
2023-02-02T01:20:32.357Z,100931.25
2023-02-02T01:22:58.914Z,100934.78
2023-02-02T01:25:25.885Z,100939.13
2023-02-02T01:27:52.597Z,100929.81
2023-02-02T01:30:19.201Z,100930.84
2023-02-02T01:32:45.844Z,100938.66
2023-02-02T01:35:12.540Z,100935.31
2023-02-02T01:37:39.376Z,100941.38
2023-02-02T01:40:07.174Z,100942.38
2023-02-02T01:42:33.778Z,100940.59
2023-02-02T01:47:51.913Z,100947.56
2023-02-02T01:50:21.589Z,100943.34
2023-02-02T01:52:51.180Z,100950.25
2023-02-02T01:55:23.911Z,100952.00
2023-02-02T01:57:57.434Z,100952.94
2023-02-02T02:00:27.228Z,100961.56
2023-02-02T02:03:00.200Z,100966.75
2023-02-02T02:05:32.009Z,100981.47
2023-02-02T02:08:08.261Z,100978.09
2023-02-02T02:10:35.011Z,100991.88
2023-02-02T02:13:01.707Z,100991.94
2023-02-02T02:15:55.960Z,100995.38
2023-02-02T02:18:34.247Z,100995.44
2023-02-02T02:27:03.801Z,100988.59
2023-02-02T02:30:10.215Z,100989.44
2023-02-02T02:35:42.768Z,100986.78
2023-02-02T02:38:49.119Z,100990.13
2023-02-02T02:41:22.724Z,100981.56
2023-02-02T02:43:56.753Z,100983.31
2023-02-02T02:46:24.035Z,100985.91
2023-02-02T02:48:50.588Z,100972.16
2023-02-02T02:54:21.199Z,100985.00
2023-02-02T03:07:29.531Z,100977.91
2023-02-02T03:09:58.108Z,100984.69
2023-02-02T03:12:24.849Z,100974.28
2023-02-02T03:14:51.521Z,100985.41
2023-02-02T03:17:18.051Z,100975.88
2023-02-02T03:19:44.580Z,100963.75
2023-02-02T03:22:11.110Z,100956.84
2023-02-02T03:24:37.830Z,100960.25
2023-02-02T03:27:04.662Z,100965.31
2023-02-02T03:29:31.280Z,100959.19
2023-02-02T03:31:57.920Z,100950.66
2023-02-02T03:34:24.497Z,100956.66
2023-02-02T03:36:51.124Z,100955.72
2023-02-02T03:39:17.681Z,100954.88
2023-02-02T03:41:44.198Z,100959.94
2023-02-02T03:44:10.767Z,100960.78
2023-02-02T03:46:37.332Z,100954.72
2023-02-02T03:49:04.041Z,100947.69
2023-02-02T03:51:30.573Z,100947.72
2023-02-02T03:53:57.105Z,100949.47
2023-02-02T03:56:23.661Z,100953.78
2023-02-02T03:58:50.226Z,100946.84
2023-02-02T04:01:16.893Z,100952.88
2023-02-02T04:03:43.651Z,100966.59
2023-02-02T04:06:10.282Z,100945.03
2023-02-02T04:08:36.945Z,100948.50
2023-02-02T04:11:03.638Z,100961.38
2023-02-02T04:13:30.906Z,100962.97
2023-02-02T04:16:00.631Z,100969.84
2023-02-02T04:18:27.372Z,100967.22
2023-02-02T04:21:02.558Z,100962.00
2023-02-02T04:23:30.040Z,100959.41
2023-02-02T04:25:57.634Z,100947.34
2023-02-02T04:28:25.171Z,100948.97
2023-02-02T04:30:53.167Z,100948.09
2023-02-02T04:33:21.360Z,100943.78
2023-02-02T04:35:47.943Z,100941.09
2023-02-02T04:38:14.745Z,100942.81
2023-02-02T04:40:43.013Z,100942.75
2023-02-02T04:43:10.039Z,100945.19
2023-02-02T04:45:36.816Z,100934.13
2023-02-02T04:48:04.254Z,100940.09
2023-02-02T04:50:31.197Z,100953.81
2023-02-02T04:52:58.341Z,100952.91
2023-02-02T04:55:25.238Z,100955.41
2023-02-02T04:57:51.985Z,100948.50
2023-02-02T05:00:18.962Z,100948.47
2023-02-02T05:02:45.696Z,100958.72
2023-02-02T05:05:14.299Z,100956.97
2023-02-02T05:07:41.344Z,100962.91
2023-02-02T05:10:09.885Z,100956.91
2023-02-02T05:12:36.509Z,100950.78
2023-02-02T05:15:05.492Z,100951.66
2023-02-02T05:17:32.676Z,100953.38
2023-02-02T05:19:59.183Z,100951.69
2023-02-02T05:22:25.960Z,100947.41
2023-02-02T05:24:52.548Z,100944.81
2023-02-02T05:27:19.111Z,100949.91
2023-02-02T05:29:47.804Z,100951.66
2023-02-02T05:32:14.388Z,100942.34
2023-02-02T05:34:40.929Z,100944.09
2023-02-02T05:37:07.500Z,100948.41
2023-02-02T05:39:34.120Z,100955.31
2023-02-02T05:42:00.676Z,100963.06
2023-02-02T05:44:27.225Z,100969.16
2023-02-02T05:46:53.760Z,100970.84
2023-02-02T05:49:20.312Z,100985.50
2023-02-02T05:51:50.793Z,100986.44
2023-02-02T05:54:20.701Z,100993.38
2023-02-02T05:56:48.747Z,100983.16
2023-02-02T05:59:15.384Z,100992.66
2023-02-02T06:01:41.950Z,100993.59
2023-02-02T06:04:08.649Z,100985.94
2023-02-02T06:06:35.792Z,100984.28
2023-02-02T06:09:02.566Z,100980.88
2023-02-02T06:11:29.260Z,100979.13
2023-02-02T06:13:56.511Z,100985.94
2023-02-02T06:16:23.535Z,100987.63
2023-02-02T06:18:50.139Z,100984.16
2023-02-02T06:21:17.317Z,100984.16
2023-02-02T06:23:45.879Z,100984.97
2023-02-02T06:26:14.066Z,100985.03
2023-02-02T06:28:40.992Z,100981.66
2023-02-02T06:31:09.985Z,100995.44
2023-02-02T06:33:37.519Z,100992.00
2023-02-02T06:36:06.422Z,101000.59
2023-02-02T06:38:33.807Z,100995.44
2023-02-02T06:41:01.540Z,101003.16
2023-02-02T06:43:29.067Z,101000.53
2023-02-02T06:45:57.861Z,101005.75
2023-02-02T06:48:24.985Z,101001.47
2023-02-02T06:50:51.681Z,100999.72
2023-02-02T06:53:23.009Z,100993.75
2023-02-02T06:56:02.348Z,101007.53
2023-02-02T06:58:30.508Z,101005.81
2023-02-02T07:01:04.340Z,101014.50
2023-02-02T07:03:31.076Z,101016.28
2023-02-02T07:05:57.870Z,101016.31
2023-02-02T07:08:24.546Z,101019.75
2023-02-02T07:11:14.156Z,101011.22
2023-02-02T07:13:37.930Z,101016.38
2023-02-02T07:16:05.785Z,101014.72
2023-02-02T07:18:32.593Z,101018.19
2023-02-02T07:21:00.583Z,101014.81
2023-02-02T07:23:28.411Z,101028.59
2023-02-02T07:28:38.617Z,101029.47
2023-02-02T07:31:20.826Z,101025.97
2023-02-02T07:33:48.707Z,101037.28
2023-02-02T07:36:20.104Z,101026.00
2023-02-02T07:38:48.650Z,101030.41
2023-02-02T07:41:16.237Z,101035.63
2023-02-02T07:43:43.500Z,101033.91
2023-02-02T07:46:12.856Z,101026.22
2023-02-02T07:48:40.730Z,101025.34
2023-02-02T07:51:11.221Z,101018.50
2023-02-02T07:53:38.162Z,101018.63
2023-02-02T07:56:10.568Z,101017.78
2023-02-02T07:58:37.402Z,101012.72
2023-02-02T08:01:05.731Z,101011.88
2023-02-02T08:03:33.177Z,101012.75
2023-02-02T08:06:00.116Z,101008.47
2023-02-02T08:08:27.142Z,101021.44
2023-02-02T08:10:54.485Z,101018.03
2023-02-02T08:13:21.114Z,101018.06
2023-02-02T08:15:47.808Z,101021.56
2023-02-02T08:18:14.544Z,101012.19
2023-02-02T08:20:41.080Z,101013.94
2023-02-02T08:23:13.488Z,101019.25
2023-02-02T08:25:40.348Z,101022.81
2023-02-02T08:28:06.922Z,101021.25
2023-02-02T08:30:35.375Z,101024.88
2023-02-02T08:33:01.987Z,101030.16
2023-02-02T08:35:28.585Z,101034.69
2023-02-02T08:37:55.183Z,101031.41
2023-02-02T08:40:21.793Z,101035.00
2023-02-02T08:42:54.469Z,101030.13
2023-02-02T08:46:02.282Z,101026.03
2023-02-02T08:48:12.066Z,101035.63
2023-02-02T08:50:39.470Z,101032.63
2023-02-02T08:53:06.157Z,101039.56
2023-02-02T08:55:32.782Z,101036.00
2023-02-02T08:57:59.319Z,101037.50
2023-02-02T09:00:25.941Z,101046.56
2023-02-02T09:02:52.532Z,101053.75
2023-02-02T09:05:19.119Z,101065.22
2023-02-02T09:07:46.606Z,101061.16
2023-02-02T09:10:13.424Z,101058.72
2023-02-02T09:12:39.933Z,101054.63
2023-02-02T09:15:06.864Z,101067.75
2023-02-02T09:17:33.468Z,101068.66
2023-02-02T09:20:00.034Z,101074.72
2023-02-02T09:22:28.772Z,101069.53
2023-02-02T09:24:55.435Z,101070.41
2023-02-02T09:27:22.168Z,101068.69
2023-02-02T09:29:48.910Z,101070.34
2023-02-02T09:32:15.934Z,101075.50
2023-02-02T09:34:42.461Z,101075.50
2023-02-02T09:37:09.012Z,101071.94
2023-02-02T09:39:35.570Z,101078.03
2023-02-02T09:52:42.572Z,101072.13
2023-02-02T09:57:53.154Z,101072.97
2023-02-02T10:03:11.153Z,101073.56
2023-02-02T10:05:50.429Z,101068.97
2023-02-02T10:08:34.612Z,101067.94
2023-02-02T10:11:08.489Z,101073.16
2023-02-02T10:13:39.271Z,101064.34
2023-02-02T10:16:17.175Z,101075.50
2023-02-02T10:23:59.614Z,101078.41
2023-02-02T10:32:33.473Z,101096.47
2023-02-02T10:45:56.946Z,101113.75
2023-02-02T10:48:32.656Z,101104.16
2023-02-02T10:51:02.692Z,101105.84
2023-02-02T10:53:30.383Z,101105.91
2023-02-02T10:56:03.570Z,101105.84
2023-02-02T10:58:44.427Z,101098.88
2023-02-02T11:01:11.908Z,101106.69
2023-02-02T11:03:40.145Z,101101.50
2023-02-02T11:06:28.453Z,101094.59
2023-02-02T11:09:05.413Z,101096.34
2023-02-02T11:11:52.366Z,101096.38
2023-02-02T11:14:30.376Z,101087.72
2023-02-02T11:17:02.539Z,101096.44
2023-02-02T11:19:32.641Z,101099.03
2023-02-02T11:22:02.127Z,101087.78
2023-02-02T11:24:45.302Z,101091.25
2023-02-02T11:27:17.953Z,101087.75
2023-02-02T11:29:48.158Z,101083.41
2023-02-02T11:32:33.103Z,101077.34
2023-02-02T11:37:51.515Z,101079.94
2023-02-02T11:40:29.129Z,101081.59
2023-02-02T11:42:58.104Z,101079.84
2023-02-02T11:45:34.355Z,101081.56
2023-02-02T11:48:06.918Z,101078.97
2023-02-02T11:50:34.257Z,101072.84
2023-02-02T11:53:00.994Z,101071.13
2023-02-02T11:55:30.626Z,101070.19
2023-02-02T12:00:59.418Z,101063.22
2023-02-02T12:06:33.607Z,101066.63
2023-02-02T12:09:02.464Z,101068.38
2023-02-02T12:25:00.990Z,101061.47
2023-02-02T12:30:27.514Z,101054.44
2023-02-02T12:44:00.692Z,101033.53
2023-02-02T12:54:48.226Z,101027.38
2023-02-02T13:11:32.720Z,101024.75
2023-02-02T13:14:08.550Z,101019.56
2023-02-02T13:16:38.157Z,101029.94
2023-02-02T13:19:10.408Z,101033.41
2023-02-02T13:21:39.826Z,101024.78
2023-02-02T13:24:12.182Z,101029.97
2023-02-02T13:26:42.964Z,101028.25
2023-02-02T13:32:15.201Z,101014.38
2023-02-02T13:34:48.047Z,101020.50
2023-02-02T13:37:39.919Z,101023.00
2023-02-02T14:03:02.746Z,101014.31
2023-02-02T14:05:33.207Z,101015.16
2023-02-02T14:10:44.298Z,101021.19
2023-02-02T14:15:55.590Z,101015.06
2023-02-02T14:38:15.387Z,101021.94
2023-02-02T14:43:48.838Z,101018.44
2023-02-02T14:51:32.773Z,101023.66
2023-02-02T14:54:02.551Z,101029.72
2023-02-02T14:59:27.024Z,101015.84
2023-02-02T15:02:01.103Z,101021.03
2023-02-02T15:04:29.527Z,101018.38
2023-02-02T15:06:56.713Z,101011.44
2023-02-02T15:14:41.858Z,101007.06
2023-02-02T15:20:21.219Z,101018.25
2023-02-02T15:31:07.212Z,101035.38
2023-02-02T15:33:39.633Z,101030.97
2023-02-02T15:36:12.267Z,101037.84
2023-02-02T15:38:41.818Z,101046.50
2023-02-02T15:41:20.224Z,101049.94
2023-02-02T15:43:47.055Z,101053.41
2023-02-02T15:46:24.177Z,101055.97
2023-02-02T15:49:34.277Z,101051.53
2023-02-02T15:52:10.766Z,101046.38
2023-02-02T15:54:38.334Z,101042.91
2023-02-02T15:57:23.939Z,101041.97
2023-02-02T15:59:50.654Z,101036.81
2023-02-02T16:04:55.903Z,101041.06
2023-02-02T16:07:28.790Z,101035.84
2023-02-02T16:09:57.549Z,101040.97
2023-02-02T16:12:24.523Z,101035.81
2023-02-02T16:14:53.605Z,101040.09
2023-02-02T16:17:23.004Z,101046.97
2023-02-02T16:19:51.401Z,101036.59
2023-02-02T16:22:23.907Z,101036.59
2023-02-02T16:24:54.192Z,101042.63
2023-02-02T16:27:24.453Z,101048.69
2023-02-02T16:29:51.822Z,101049.50
2023-02-02T16:32:38.780Z,101038.19
2023-02-02T16:35:09.745Z,101039.09
2023-02-02T16:37:36.588Z,101027.81
2023-02-02T16:40:28.560Z,101023.47
2023-02-02T16:43:19.862Z,101023.47
2023-02-02T16:45:50.787Z,101025.22
2023-02-02T16:48:39.249Z,101032.00
2023-02-02T16:56:48.721Z,101018.34
2023-02-02T16:59:24.857Z,101025.16
2023-02-02T17:01:55.393Z,101007.06
2023-02-02T17:04:29.287Z,101004.41
2023-02-02T17:07:05.271Z,101006.09
2023-02-02T17:09:37.350Z,101020.72
2023-02-02T17:12:33.213Z,101021.56
2023-02-02T17:15:22.858Z,101019.72
2023-02-02T17:17:49.676Z,101021.41
2023-02-02T17:20:17.832Z,101021.44
2023-02-02T17:22:47.617Z,101030.03
2023-02-02T17:25:17.108Z,101024.72
2023-02-02T17:27:45.175Z,101038.47
2023-02-02T17:30:18.504Z,101045.31
2023-02-02T17:32:45.604Z,101047.00
2023-02-02T17:35:17.979Z,101051.38
2023-02-02T17:37:44.578Z,101051.31
2023-02-02T17:40:16.034Z,101061.63
2023-02-02T17:42:45.049Z,101068.53
2023-02-02T17:45:20.200Z,101057.25
2023-02-02T17:47:46.798Z,101061.63
2023-02-02T17:50:13.461Z,101053.84
2023-02-02T17:52:40.108Z,101065.06
2023-02-02T17:55:14.329Z,101058.97
2023-02-02T17:57:41.138Z,101070.94
2023-02-02T18:00:08.384Z,101065.88
2023-02-02T18:02:35.120Z,101064.16
2023-02-02T18:05:03.150Z,101055.53
2023-02-02T18:07:29.702Z,101043.38
2023-02-02T18:09:56.256Z,101048.63
2023-02-02T18:12:23.523Z,101041.66
2023-02-02T18:14:50.094Z,101049.47
2023-02-02T18:17:16.626Z,101058.88
2023-02-02T18:19:45.183Z,101062.19
2023-02-02T18:22:13.775Z,101060.56
2023-02-02T18:24:41.088Z,101054.53
2023-02-02T18:27:08.423Z,101049.31
2023-02-02T18:29:35.367Z,101043.31
2023-02-02T18:32:02.352Z,101039.91
2023-02-02T18:34:30.544Z,101036.38
2023-02-02T18:36:57.103Z,101038.19
2023-02-02T18:39:23.718Z,101032.91
2023-02-02T18:41:50.347Z,101039.88
2023-02-02T18:44:17.251Z,101045.09
2023-02-02T18:46:43.805Z,101039.84
2023-02-02T18:49:10.986Z,101046.78
2023-02-02T18:51:37.605Z,101056.22
2023-02-02T18:54:04.239Z,101053.63
2023-02-02T18:56:30.874Z,101058.81
2023-02-02T18:58:58.188Z,101078.63
2023-02-02T19:01:26.000Z,101103.66
2023-02-02T19:03:57.280Z,101121.75
2023-02-02T19:06:44.776Z,101122.66
2023-02-02T19:09:13.741Z,101144.19
2023-02-02T19:11:43.891Z,101141.63
2023-02-02T19:14:12.861Z,101137.16
2023-02-02T19:16:39.416Z,101124.25
2023-02-02T19:19:21.941Z,101112.19
2023-02-02T19:21:48.814Z,101113.97
2023-02-02T19:24:15.809Z,101120.91
2023-02-02T19:26:46.934Z,101123.50
2023-02-02T19:29:18.762Z,101122.66
2023-02-02T19:31:45.914Z,101126.88
2023-02-02T19:34:16.995Z,101134.66
2023-02-02T19:36:46.879Z,101120.84
2023-02-02T19:39:18.612Z,101112.25
2023-02-02T19:41:45.286Z,101109.66
2023-02-02T19:44:17.379Z,101107.06
2023-02-02T19:46:46.572Z,101105.38
2023-02-02T19:49:22.012Z,101095.00
2023-02-02T19:51:53.612Z,101096.66
2023-02-02T19:54:39.373Z,101087.06
2023-02-02T19:59:45.439Z,101096.56
2023-02-02T20:02:41.025Z,101102.47
2023-02-02T20:07:51.979Z,101111.13
2023-02-02T20:10:27.428Z,101117.16
2023-02-02T20:12:54.976Z,101118.88
2023-02-02T20:18:01.425Z,101127.56
2023-02-02T20:20:33.558Z,101135.28
2023-02-02T20:23:00.505Z,101144.75
2023-02-02T20:25:29.263Z,101134.34
2023-02-02T20:27:58.936Z,101120.41
2023-02-02T20:30:30.877Z,101130.69
2023-02-02T20:32:59.196Z,101137.50
2023-02-02T20:35:35.933Z,101141.66
2023-02-02T20:38:13.258Z,101137.31
2023-02-02T20:40:39.831Z,101133.84
2023-02-02T20:43:06.422Z,101151.03
2023-02-02T20:45:33.047Z,101154.53
2023-02-02T20:47:59.576Z,101154.53
2023-02-02T20:50:26.332Z,101158.03
2023-02-02T20:52:54.056Z,101152.88
2023-02-02T20:55:20.827Z,101152.94
2023-02-02T20:57:47.423Z,101155.53
2023-02-02T21:00:17.166Z,101146.00
2023-02-02T21:02:43.808Z,101146.97
2023-02-02T21:05:10.397Z,101145.25
2023-02-02T21:07:37.139Z,101146.97
2023-02-02T21:10:05.114Z,101148.72
2023-02-02T21:12:31.733Z,101152.19
2023-02-02T21:14:58.361Z,101136.69
2023-02-02T21:17:24.996Z,101132.34
2023-02-02T21:19:51.567Z,101141.78
2023-02-02T21:22:18.129Z,101136.50
2023-02-02T21:24:44.654Z,101126.91
2023-02-02T21:27:11.347Z,101123.34
2023-02-02T21:29:38.482Z,101122.34
2023-02-02T21:32:06.057Z,101111.91
2023-02-02T21:34:33.183Z,101104.03
2023-02-02T21:36:59.962Z,101109.16
2023-02-02T21:42:15.639Z,101100.31
2023-02-02T21:47:32.360Z,101081.22
2023-02-02T21:50:19.273Z,101080.28
2023-02-02T21:52:46.371Z,101075.03
2023-02-02T21:58:22.255Z,101073.13
2023-02-02T22:00:50.328Z,101065.41
2023-02-02T22:06:17.890Z,101066.16
2023-02-02T22:08:44.447Z,101068.75
2023-02-02T22:11:24.351Z,101080.72
2023-02-02T22:13:52.864Z,101092.00
2023-02-02T22:16:20.889Z,101100.56
2023-02-02T22:18:47.849Z,101101.38
2023-02-02T22:21:18.801Z,101101.38
2023-02-02T22:23:46.550Z,101105.66
2023-02-02T22:26:29.313Z,101106.47
2023-02-02T22:28:56.268Z,101105.63
2023-02-02T22:31:22.930Z,101110.81
2023-02-02T22:33:49.595Z,101115.16
2023-02-02T22:36:16.161Z,101117.72
2023-02-02T22:38:42.668Z,101114.31
2023-02-02T22:41:09.650Z,101118.66
2023-02-02T22:43:36.435Z,101127.28
2023-02-02T22:46:03.135Z,101142.78
2023-02-02T22:48:29.732Z,101145.38
2023-02-02T22:50:56.266Z,101147.97
2023-02-02T22:53:22.806Z,101144.53
2023-02-02T22:55:56.304Z,101156.59
2023-02-02T22:58:24.534Z,101158.44
2023-02-02T23:00:51.452Z,101162.00
2023-02-02T23:03:18.264Z,101158.56
2023-02-02T23:05:44.897Z,101156.94
2023-02-02T23:08:11.379Z,101163.09
2023-02-02T23:10:38.266Z,101169.09
2023-02-02T23:13:05.890Z,101155.41
2023-02-02T23:15:32.972Z,101155.44
2023-02-02T23:17:59.782Z,101151.16
2023-02-02T23:20:27.756Z,101137.34
2023-02-02T23:22:54.556Z,101154.66
2023-02-02T23:25:22.089Z,101146.06
2023-02-02T23:27:49.033Z,101144.31
2023-02-02T23:30:15.917Z,101152.09
2023-02-02T23:32:42.615Z,101163.34
2023-02-02T23:35:11.012Z,101148.75
2023-02-02T23:37:37.787Z,101147.97
2023-02-02T23:40:05.039Z,101143.69
2023-02-02T23:42:32.082Z,101145.41
2023-02-02T23:44:58.625Z,101145.41
2023-02-02T23:47:25.730Z,101142.84
2023-02-02T23:49:52.534Z,101142.84
2023-02-02T23:52:19.129Z,101136.78
2023-02-02T23:54:45.848Z,101123.00
2023-02-02T23:57:12.429Z,101126.38
2023-02-02T23:59:38.939Z,101118.66
